This is the latest recevied weather packets stored in our database for station/object 9M4GEK-3. If no packets are shown the sender has not sent any weather packets the latest 10 day(s).
| Time | Temp. | Humidity | Pressure | Rain* | Wind** | Luminosity | Snow |
|---|---|---|---|---|---|---|---|
| 1778055365 | 29.44° C | 65% | 1005 hPa | - | - | - | - |
| 1778055309 | 29.44° C | 65% | 1005 hPa | - | - | - | - |
| 1778054449 | 33.89° C | 50% | 1004.3 hPa | - | - | - | - |
| 1778054409 | 33.89° C | 50% | 1004.3 hPa | - | - | - | - |
| 1778053561 | 35° C | 46% | 1004.4 hPa | - | - | - | - |
| 1778053509 | 35° C | 46% | 1004.4 hPa | - | - | - | - |
| 1778052610 | 38.33° C | 40% | 1004.2 hPa | - | - | - | - |
| 1778051710 | 42.78° C | 33% | 1004.3 hPa | - | - | - | - |
| 1778050810 | 42.78° C | 35% | 1005 hPa | - | - | - | - |
| 1778049941 | 41.11° C | 37% | 1005.3 hPa | - | - | - | - |
| 1778049909 | 41.11° C | 37% | 1005.3 hPa | - | - | - | - |
| 1778049437 | 42.78° C | 36% | 1005.4 hPa | - | - | - | - |
| 1778049009 | 42.78° C | 36% | 1005.4 hPa | - | - | - | - |
| 1778048109 | 38.89° C | 41% | 1005.9 hPa | - | - | - | - |
| 1778047241 | 40.56° C | 38% | 1006.3 hPa | - | - | - | - |
| 1778047209 | 40.56° C | 38% | 1006.3 hPa | - | - | - | - |
| 1778046342 | 45° C | 31% | 1006.5 hPa | - | - | - | - |
| 1778046309 | 45° C | 31% | 1006.5 hPa | - | - | - | - |
| 1778045487 | 46.11° C | 28% | 1006.8 hPa | - | - | - | - |
| 1778045409 | 46.11° C | 28% | 1006.8 hPa | - | - | - | - |
| 1778044509 | 45.56° C | 29% | 1006.9 hPa | - | - | - | - |
| 1778043681 | 45.56° C | 30% | 1007.3 hPa | - | - | - | - |
| 1778043608 | 45.56° C | 30% | 1007.3 hPa | - | - | - | - |
| 1778042708 | 44.44° C | 32% | 1007.5 hPa | - | - | - | - |
| 1778041849 | 42.22° C | 34% | 1007.7 hPa | - | - | - | - |
* Rain since midnight (hover to see other rain measurements)
** Current wind speed in m/s (hover to see current wind gust speed)